sensor_id;sensor_type;location;lat;lon;timestamp;pressure;altitude;pressure_sealevel;temperature
62180;BMP280;48172;53.374;10.722;2022-10-23T00:01:51;101670.50;;;22.39
62180;BMP280;48172;53.374;10.722;2022-10-23T00:04:20;101671.25;;;22.39
62180;BMP280;48172;53.374;10.722;2022-10-23T00:06:48;101674.88;;;22.36
62180;BMP280;48172;53.374;10.722;2022-10-23T00:09:16;101685.28;;;22.38
62180;BMP280;48172;53.374;10.722;2022-10-23T00:11:44;101689.97;;;22.37
62180;BMP280;48172;53.374;10.722;2022-10-23T00:14:14;101689.97;;;22.37
62180;BMP280;48172;53.374;10.722;2022-10-23T00:16:40;101681.03;;;22.37
62180;BMP280;48172;53.374;10.722;2022-10-23T00:19:07;101681.81;;;22.37
62180;BMP280;48172;53.374;10.722;2022-10-23T00:21:33;101682.16;;;22.39
62180;BMP280;48172;53.374;10.722;2022-10-23T00:24:02;101683.03;;;22.36
62180;BMP280;48172;53.374;10.722;2022-10-23T00:26:29;101695.13;;;22.35
62180;BMP280;48172;53.374;10.722;2022-10-23T00:28:58;101681.50;;;22.35
62180;BMP280;48172;53.374;10.722;2022-10-23T00:31:25;101680.00;;;22.34
62180;BMP280;48172;53.374;10.722;2022-10-23T00:33:54;101691.19;;;22.36
62180;BMP280;48172;53.374;10.722;2022-10-23T00:36:21;101692.41;;;22.35
62180;BMP280;48172;53.374;10.722;2022-10-23T00:38:48;101685.00;;;22.36
62180;BMP280;48172;53.374;10.722;2022-10-23T00:41:22;101687.84;;;22.32
62180;BMP280;48172;53.374;10.722;2022-10-23T00:46:47;101693.59;;;22.34
62180;BMP280;48172;53.374;10.722;2022-10-23T00:49:17;101690.56;;;22.32
62180;BMP280;48172;53.374;10.722;2022-10-23T00:51:48;101691.31;;;22.32
62180;BMP280;48172;53.374;10.722;2022-10-23T00:54:20;101689.81;;;22.31
62180;BMP280;48172;53.374;10.722;2022-10-23T00:56:55;101674.22;;;22.32
62180;BMP280;48172;53.374;10.722;2022-10-23T00:59:25;101687.53;;;22.30
62180;BMP280;48172;53.374;10.722;2022-10-23T01:01:54;101685.25;;;22.28
62180;BMP280;48172;53.374;10.722;2022-10-23T01:04:22;101686.00;;;22.29
62180;BMP280;48172;53.374;10.722;2022-10-23T01:07:15;101682.50;;;22.28
62180;BMP280;48172;53.374;10.722;2022-10-23T01:10:00;101679.47;;;22.26
62180;BMP280;48172;53.374;10.722;2022-10-23T01:23:08;101682.31;;;22.23
62180;BMP280;48172;53.374;10.722;2022-10-23T01:28:46;101682.31;;;22.23
62180;BMP280;48172;53.374;10.722;2022-10-23T01:31:20;101692.16;;;22.20
62180;BMP280;48172;53.374;10.722;2022-10-23T01:33:58;101683.97;;;22.20
62180;BMP280;48172;53.374;10.722;2022-10-23T01:36:28;101692.16;;;22.20
62180;BMP280;48172;53.374;10.722;2022-10-23T01:39:03;101692.56;;;22.19
62180;BMP280;48172;53.374;10.722;2022-10-23T01:41:36;101697.13;;;22.22
62180;BMP280;48172;53.374;10.722;2022-10-23T01:46:34;101686.69;;;22.20
62180;BMP280;48172;53.374;10.722;2022-10-23T01:49:05;101682.44;;;22.19
62180;BMP280;48172;53.374;10.722;2022-10-23T01:51:34;101685.94;;;22.20
62180;BMP280;48172;53.374;10.722;2022-10-23T01:54:05;101694.88;;;22.20
62180;BMP280;48172;53.374;10.722;2022-10-23T01:56:34;101693.31;;;22.19
62180;BMP280;48172;53.374;10.722;2022-10-23T01:59:04;101695.28;;;22.19
62180;BMP280;48172;53.374;10.722;2022-10-23T02:01:35;101688.31;;;22.18
62180;BMP280;48172;53.374;10.722;2022-10-23T02:04:04;101693.00;;;22.17
62180;BMP280;48172;53.374;10.722;2022-10-23T02:06:34;101679.84;;;22.16
62180;BMP280;48172;53.374;10.722;2022-10-23T02:09:00;101685.59;;;22.18
62180;BMP280;48172;53.374;10.722;2022-10-23T02:11:27;101693.31;;;22.19
62180;BMP280;48172;53.374;10.722;2022-10-23T02:14:23;101687.56;;;22.17
62180;BMP280;48172;53.374;10.722;2022-10-23T02:16:54;101676.66;;;22.17
62180;BMP280;48172;53.374;10.722;2022-10-23T02:22:08;101665.50;;;22.15
62180;BMP280;48172;53.374;10.722;2022-10-23T02:24:43;101663.66;;;22.12
62180;BMP280;48172;53.374;10.722;2022-10-23T02:27:13;101659.69;;;22.13
62180;BMP280;48172;53.374;10.722;2022-10-23T02:30:06;101662.41;;;22.13
62180;BMP280;48172;53.374;10.722;2022-10-23T02:32:34;101660.47;;;22.14
62180;BMP280;48172;53.374;10.722;2022-10-23T02:35:02;101661.69;;;22.13
62180;BMP280;48172;53.374;10.722;2022-10-23T02:37:29;101662.13;;;22.11
62180;BMP280;48172;53.374;10.722;2022-10-23T02:39:56;101662.88;;;22.12
62180;BMP280;48172;53.374;10.722;2022-10-23T02:42:33;101663.66;;;22.12
62180;BMP280;48172;53.374;10.722;2022-10-23T02:45:08;101659.41;;;22.11
62180;BMP280;48172;53.374;10.722;2022-10-23T02:47:45;101657.09;;;22.10
62180;BMP280;48172;53.374;10.722;2022-10-23T03:00:53;101675.38;;;22.09
62180;BMP280;48172;53.374;10.722;2022-10-23T03:03:28;101677.69;;;22.11
62180;BMP280;48172;53.374;10.722;2022-10-23T03:05:55;101659.81;;;22.10
62180;BMP280;48172;53.374;10.722;2022-10-23T03:08:21;101656.81;;;22.08
62180;BMP280;48172;53.374;10.722;2022-10-23T03:10:48;101662.25;;;22.08
62180;BMP280;48172;53.374;10.722;2022-10-23T03:13:14;101661.47;;;22.07
62180;BMP280;48172;53.374;10.722;2022-10-23T03:15:41;101666.94;;;22.07
62180;BMP280;48172;53.374;10.722;2022-10-23T03:18:08;101659.97;;;22.06
62180;BMP280;48172;53.374;10.722;2022-10-23T03:20:34;101658.44;;;22.05
62180;BMP280;48172;53.374;10.722;2022-10-23T03:23:01;101663.88;;;22.05
62180;BMP280;48172;53.374;10.722;2022-10-23T03:25:27;101658.00;;;22.07
62180;BMP280;48172;53.374;10.722;2022-10-23T03:27:54;101654.53;;;22.06
62180;BMP280;48172;53.374;10.722;2022-10-23T03:30:20;101653.75;;;22.06
62180;BMP280;48172;53.374;10.722;2022-10-23T03:32:47;101661.94;;;22.06
62180;BMP280;48172;53.374;10.722;2022-10-23T03:35:13;101654.19;;;22.04
62180;BMP280;48172;53.374;10.722;2022-10-23T03:37:40;101657.69;;;22.05
62180;BMP280;48172;53.374;10.722;2022-10-23T03:40:07;101661.59;;;22.04
62180;BMP280;48172;53.374;10.722;2022-10-23T03:42:34;101655.41;;;22.03
62180;BMP280;48172;53.374;10.722;2022-10-23T03:45:00;101655.41;;;22.03
62180;BMP280;48172;53.374;10.722;2022-10-23T03:47:27;101652.69;;;22.03
62180;BMP280;48172;53.374;10.722;2022-10-23T03:49:55;101644.50;;;22.03
62180;BMP280;48172;53.374;10.722;2022-10-23T03:52:21;101646.47;;;22.03
62180;BMP280;48172;53.374;10.722;2022-10-23T03:54:53;101636.34;;;22.03
62180;BMP280;48172;53.374;10.722;2022-10-23T03:57:19;101645.28;;;22.04
62180;BMP280;48172;53.374;10.722;2022-10-23T03:59:46;101644.94;;;22.02
62180;BMP280;48172;53.374;10.722;2022-10-23T04:02:12;101648.88;;;22.00
62180;BMP280;48172;53.374;10.722;2022-10-23T04:04:38;101648.88;;;22.00
62180;BMP280;48172;53.374;10.722;2022-10-23T04:07:05;101651.59;;;22.00
62180;BMP280;48172;53.374;10.722;2022-10-23T04:09:31;101648.88;;;22.00
62180;BMP280;48172;53.374;10.722;2022-10-23T04:11:58;101651.59;;;22.00
62180;BMP280;48172;53.374;10.722;2022-10-23T04:14:24;101647.34;;;21.99
62180;BMP280;48172;53.374;10.722;2022-10-23T04:16:51;101648.56;;;21.98
62180;BMP280;48172;53.374;10.722;2022-10-23T04:19:17;101657.91;;;21.97
62180;BMP280;48172;53.374;10.722;2022-10-23T04:21:44;101654.47;;;21.97
62180;BMP280;48172;53.374;10.722;2022-10-23T04:24:11;101646.31;;;21.97
62180;BMP280;48172;53.374;10.722;2022-10-23T04:26:37;101640.84;;;21.97
62180;BMP280;48172;53.374;10.722;2022-10-23T04:29:04;101651.75;;;21.97
62180;BMP280;48172;53.374;10.722;2022-10-23T04:31:30;101649.44;;;21.95
62180;BMP280;48172;53.374;10.722;2022-10-23T04:36:23;101657.19;;;21.97
62180;BMP280;48172;53.374;10.722;2022-10-23T04:38:50;101644.44;;;21.94
62180;BMP280;48172;53.374;10.722;2022-10-23T04:41:16;101636.72;;;21.92
62180;BMP280;48172;53.374;10.722;2022-10-23T04:43:43;101630.53;;;21.92
62180;BMP280;48172;53.374;10.722;2022-10-23T04:46:09;101643.59;;;21.97
62180;BMP280;48172;53.374;10.722;2022-10-23T04:48:35;101634.00;;;21.92
62180;BMP280;48172;53.374;10.722;2022-10-23T04:51:04;101632.06;;;21.93
62180;BMP280;48172;53.374;10.722;2022-10-23T04:53:31;101630.06;;;21.93
62180;BMP280;48172;53.374;10.722;2022-10-23T04:55:59;101631.28;;;21.92
62180;BMP280;48172;53.374;10.722;2022-10-23T04:58:26;101626.25;;;21.91
62180;BMP280;48172;53.374;10.722;2022-10-23T05:00:53;101625.50;;;21.90
62180;BMP280;48172;53.374;10.722;2022-10-23T05:03:21;101625.50;;;21.90
62180;BMP280;48172;53.374;10.722;2022-10-23T05:05:48;101630.19;;;21.90
62180;BMP280;48172;53.374;10.722;2022-10-23T05:08:14;101643.78;;;21.90
62180;BMP280;48172;53.374;10.722;2022-10-23T05:10:43;101630.19;;;21.90
62180;BMP280;48172;53.374;10.722;2022-10-23T05:13:10;101615.53;;;21.87
62180;BMP280;48172;53.374;10.722;2022-10-23T05:15:36;101631.84;;;21.87
62180;BMP280;48172;53.374;10.722;2022-10-23T05:18:10;101629.53;;;21.86
62180;BMP280;48172;53.374;10.722;2022-10-23T05:20:38;101624.09;;;21.86
62180;BMP280;48172;53.374;10.722;2022-10-23T05:23:08;101626.81;;;21.86
62180;BMP280;48172;53.374;10.722;2022-10-23T05:25:36;101617.94;;;21.85
62180;BMP280;48172;53.374;10.722;2022-10-23T05:28:02;101615.22;;;21.85
62180;BMP280;48172;53.374;10.722;2022-10-23T05:30:29;101608.53;;;21.86
62180;BMP280;48172;53.374;10.722;2022-10-23T05:33:00;101613.22;;;21.86
62180;BMP280;48172;53.374;10.722;2022-10-23T05:35:27;101610.50;;;21.86
62180;BMP280;48172;53.374;10.722;2022-10-23T05:37:56;101617.16;;;21.85
62180;BMP280;48172;53.374;10.722;2022-10-23T05:40:24;101610.97;;;21.84
62180;BMP280;48172;53.374;10.722;2022-10-23T05:42:51;101604.75;;;21.84
62180;BMP280;48172;53.374;10.722;2022-10-23T05:45:17;101612.16;;;21.83
62180;BMP280;48172;53.374;10.722;2022-10-23T05:47:44;101608.69;;;21.83
62180;BMP280;48172;53.374;10.722;2022-10-23T05:50:11;101614.56;;;21.81
62180;BMP280;48172;53.374;10.722;2022-10-23T05:52:37;101617.28;;;21.81
62180;BMP280;48172;53.374;10.722;2022-10-23T05:55:04;101615.75;;;21.80
62180;BMP280;48172;53.374;10.722;2022-10-23T05:57:32;101621.63;;;21.79
62180;BMP280;48172;53.374;10.722;2022-10-23T05:59:58;101616.84;;;21.83
62180;BMP280;48172;53.374;10.722;2022-10-23T06:02:25;101621.97;;;21.81
62180;BMP280;48172;53.374;10.722;2022-10-23T06:04:52;101626.63;;;21.80
62180;BMP280;48172;53.374;10.722;2022-10-23T06:07:24;101636.00;;;21.79
62180;BMP280;48172;53.374;10.722;2022-10-23T06:09:50;101627.84;;;21.79
62180;BMP280;48172;53.374;10.722;2022-10-23T06:12:19;101636.00;;;21.79
62180;BMP280;48172;53.374;10.722;2022-10-23T06:14:46;101642.63;;;21.78
62180;BMP280;48172;53.374;10.722;2022-10-23T06:17:13;101637.19;;;21.78
62180;BMP280;48172;53.374;10.722;2022-10-23T06:19:40;101635.25;;;21.79
62180;BMP280;48172;53.374;10.722;2022-10-23T06:22:06;101635.69;;;21.77
62180;BMP280;48172;53.374;10.722;2022-10-23T06:24:33;101629.03;;;21.78
62180;BMP280;48172;53.374;10.722;2022-10-23T06:26:59;101632.97;;;21.77
62180;BMP280;48172;53.374;10.722;2022-10-23T06:29:26;101636.88;;;21.76
62180;BMP280;48172;53.374;10.722;2022-10-23T06:31:52;101636.13;;;21.76
62180;BMP280;48172;53.374;10.722;2022-10-23T06:34:19;101641.56;;;21.76
62180;BMP280;48172;53.374;10.722;2022-10-23T06:36:45;101638.84;;;21.76
62180;BMP280;48172;53.374;10.722;2022-10-23T06:39:11;101637.63;;;21.77
62180;BMP280;48172;53.374;10.722;2022-10-23T06:41:38;101636.00;;;21.79
62180;BMP280;48172;53.374;10.722;2022-10-23T06:44:07;101626.75;;;21.77
62180;BMP280;48172;53.374;10.722;2022-10-23T06:46:35;101626.00;;;21.76
62180;BMP280;48172;53.374;10.722;2022-10-23T06:49:02;101630.34;;;21.74
62180;BMP280;48172;53.374;10.722;2022-10-23T06:51:28;101624.47;;;21.75
62180;BMP280;48172;53.374;10.722;2022-10-23T06:53:55;101633.06;;;21.74
62180;BMP280;48172;53.374;10.722;2022-10-23T06:56:22;101629.63;;;21.73
62180;BMP280;48172;53.374;10.722;2022-10-23T06:58:50;101625.34;;;21.72
62180;BMP280;48172;53.374;10.722;2022-10-23T07:01:17;101630.03;;;21.72
62180;BMP280;48172;53.374;10.722;2022-10-23T07:03:43;101628.84;;;21.73
62180;BMP280;48172;53.374;10.722;2022-10-23T07:06:10;101632.75;;;21.72
62180;BMP280;48172;53.374;10.722;2022-10-23T07:08:37;101631.88;;;21.75
62180;BMP280;48172;53.374;10.722;2022-10-23T07:11:08;101631.13;;;21.74
62180;BMP280;48172;53.374;10.722;2022-10-23T07:13:36;101630.34;;;21.74
62180;BMP280;48172;53.374;10.722;2022-10-23T07:16:15;101630.34;;;21.74
62180;BMP280;48172;53.374;10.722;2022-10-23T07:18:43;101629.63;;;21.73
62180;BMP280;48172;53.374;10.722;2022-10-23T07:21:10;101619.16;;;21.72
62180;BMP280;48172;53.374;10.722;2022-10-23T07:23:36;101629.25;;;21.71
62180;BMP280;48172;53.374;10.722;2022-10-23T07:26:14;101633.41;;;21.76
62180;BMP280;48172;53.374;10.722;2022-10-23T07:28:42;101625.69;;;21.74
62180;BMP280;48172;53.374;10.722;2022-10-23T07:31:10;101621.00;;;21.75
62180;BMP280;48172;53.374;10.722;2022-10-23T07:33:36;101623.28;;;21.76
62180;BMP280;48172;53.374;10.722;2022-10-23T07:36:05;101622.19;;;21.74
62180;BMP280;48172;53.374;10.722;2022-10-23T07:38:32;101627.63;;;21.74
62180;BMP280;48172;53.374;10.722;2022-10-23T07:40:59;101624.91;;;21.74
62180;BMP280;48172;53.374;10.722;2022-10-23T07:43:26;101623.72;;;21.75
62180;BMP280;48172;53.374;10.722;2022-10-23T07:45:53;101626.44;;;21.75
62180;BMP280;48172;53.374;10.722;2022-10-23T07:48:19;101612.84;;;21.75
62180;BMP280;48172;53.374;10.722;2022-10-23T07:50:47;101618.28;;;21.75
62180;BMP280;48172;53.374;10.722;2022-10-23T07:53:19;101619.78;;;21.76
62180;BMP280;48172;53.374;10.722;2022-10-23T07:56:00;101621.00;;;21.75
62180;BMP280;48172;53.374;10.722;2022-10-23T07:58:28;101634.59;;;21.75
62180;BMP280;48172;53.374;10.722;2022-10-23T08:14:18;101627.50;;;21.77
62180;BMP280;48172;53.374;10.722;2022-10-23T08:16:44;101624.47;;;21.75
62180;BMP280;48172;53.374;10.722;2022-10-23T08:19:11;101617.41;;;21.78
62180;BMP280;48172;53.374;10.722;2022-10-23T08:21:37;101614.25;;;21.79
62180;BMP280;48172;53.374;10.722;2022-10-23T08:24:04;101609.56;;;21.80
62180;BMP280;48172;53.374;10.722;2022-10-23T08:26:31;101604.88;;;21.80
62180;BMP280;48172;53.374;10.722;2022-10-23T08:28:58;101600.84;;;21.85
62180;BMP280;48172;53.374;10.722;2022-10-23T08:31:25;101606.94;;;21.89
62180;BMP280;48172;53.374;10.722;2022-10-23T08:33:51;101602.84;;;21.93
62180;BMP280;48172;53.374;10.722;2022-10-23T08:36:21;101611.22;;;21.99
62180;BMP280;48172;53.374;10.722;2022-10-23T08:38:48;101610.66;;;22.04
62180;BMP280;48172;53.374;10.722;2022-10-23T08:41:22;101603.13;;;22.08
62180;BMP280;48172;53.374;10.722;2022-10-23T08:43:55;101590.59;;;22.11
62180;BMP280;48172;53.374;10.722;2022-10-23T08:46:27;101595.00;;;22.17
62180;BMP280;48172;53.374;10.722;2022-10-23T08:49:16;101589.47;;;22.21
62180;BMP280;48172;53.374;10.722;2022-10-23T08:51:48;101592.69;;;22.28
62180;BMP280;48172;53.374;10.722;2022-10-23T08:56:56;101608.78;;;22.36
62180;BMP280;48172;53.374;10.722;2022-10-23T08:59:37;101613.31;;;22.39
62180;BMP280;48172;53.374;10.722;2022-10-23T09:02:27;101605.75;;;22.43
62180;BMP280;48172;53.374;10.722;2022-10-23T09:04:56;101609.56;;;22.45
62180;BMP280;48172;53.374;10.722;2022-10-23T09:07:49;101602.50;;;22.48
62180;BMP280;48172;53.374;10.722;2022-10-23T09:13:20;101592.22;;;22.52
62180;BMP280;48172;53.374;10.722;2022-10-23T09:15:59;101594.94;;;22.52
62180;BMP280;48172;53.374;10.722;2022-10-23T09:18:29;101593.28;;;22.54
62180;BMP280;48172;53.374;10.722;2022-10-23T09:20:56;101589.81;;;22.54
62180;BMP280;48172;53.374;10.722;2022-10-23T09:23:23;101595.53;;;22.56
62180;BMP280;48172;53.374;10.722;2022-10-23T09:25:53;101589.66;;;22.57
62180;BMP280;48172;53.374;10.722;2022-10-23T09:28:48;101584.63;;;22.56
62180;BMP280;48172;53.374;10.722;2022-10-23T09:31:14;101585.00;;;22.58
62180;BMP280;48172;53.374;10.722;2022-10-23T09:33:56;101574.84;;;22.58
62180;BMP280;48172;53.374;10.722;2022-10-23T09:36:24;101576.34;;;22.59
62180;BMP280;48172;53.374;10.722;2022-10-23T09:38:57;101582.25;;;22.58
62180;BMP280;48172;53.374;10.722;2022-10-23T09:41:30;101587.25;;;22.59
62180;BMP280;48172;53.374;10.722;2022-10-23T09:44:19;101579.06;;;22.59
62180;BMP280;48172;53.374;10.722;2022-10-23T09:46:49;101572.00;;;22.62
62180;BMP280;48172;53.374;10.722;2022-10-23T09:49:19;101581.34;;;22.61
62180;BMP280;48172;53.374;10.722;2022-10-23T09:54:43;101571.66;;;22.60
62180;BMP280;48172;53.374;10.722;2022-10-23T09:59:43;101569.41;;;22.58
62180;BMP280;48172;53.374;10.722;2022-10-23T10:02:29;101559.72;;;22.57
62180;BMP280;48172;53.374;10.722;2022-10-23T10:04:57;101567.09;;;22.57
62180;BMP280;48172;53.374;10.722;2022-10-23T10:07:27;101567.56;;;22.55
62180;BMP280;48172;53.374;10.722;2022-10-23T10:09:57;101560.13;;;22.56
62180;BMP280;48172;53.374;10.722;2022-10-23T10:15:52;101567.25;;;22.53
62180;BMP280;48172;53.374;10.722;2022-10-23T10:18:35;101559.53;;;22.52
62180;BMP280;48172;53.374;10.722;2022-10-23T10:21:12;101551.03;;;22.50
62180;BMP280;48172;53.374;10.722;2022-10-23T10:24:16;101552.25;;;22.49
62180;BMP280;48172;53.374;10.722;2022-10-23T10:34:48;101538.91;;;22.42
62180;BMP280;48172;53.374;10.722;2022-10-23T10:40:00;101522.16;;;22.43
62180;BMP280;48172;53.374;10.722;2022-10-23T10:45:25;101508.94;;;22.42
62180;BMP280;48172;53.374;10.722;2022-10-23T10:48:17;101510.47;;;22.43
62180;BMP280;48172;53.374;10.722;2022-10-23T10:53:32;101513.19;;;22.43
62180;BMP280;48172;53.374;10.722;2022-10-23T10:56:04;101514.75;;;22.44
62180;BMP280;48172;53.374;10.722;2022-10-23T10:58:59;101509.28;;;22.44
62180;BMP280;48172;53.374;10.722;2022-10-23T11:01:39;101506.84;;;22.46
62180;BMP280;48172;53.374;10.722;2022-10-23T11:04:17;101512.31;;;22.46
62180;BMP280;48172;53.374;10.722;2022-10-23T11:06:50;101513.06;;;22.46
62180;BMP280;48172;53.374;10.722;2022-10-23T11:09:21;101491.59;;;22.48
62180;BMP280;48172;53.374;10.722;2022-10-23T11:11:49;101484.50;;;22.51
62180;BMP280;48172;53.374;10.722;2022-10-23T11:14:17;101486.00;;;22.52
62180;BMP280;48172;53.374;10.722;2022-10-23T11:16:47;101481.63;;;22.54
62180;BMP280;48172;53.374;10.722;2022-10-23T11:19:25;101468.03;;;22.54
62180;BMP280;48172;53.374;10.722;2022-10-23T11:22:05;101453.94;;;22.56
62180;BMP280;48172;53.374;10.722;2022-10-23T11:38:48;101431.56;;;22.61
62180;BMP280;48172;53.374;10.722;2022-10-23T11:41:22;101437.00;;;22.61
62180;BMP280;48172;53.374;10.722;2022-10-23T11:43:55;101437.44;;;22.59
62180;BMP280;48172;53.374;10.722;2022-10-23T11:48:49;101425.47;;;22.57
62180;BMP280;48172;53.374;10.722;2022-10-23T11:51:35;101423.56;;;22.57
62180;BMP280;48172;53.374;10.722;2022-10-23T11:56:38;101411.88;;;22.57
62180;BMP280;48172;53.374;10.722;2022-10-23T12:01:48;101410.34;;;22.56
62180;BMP280;48172;53.374;10.722;2022-10-23T12:04:21;101400.69;;;22.55
62180;BMP280;48172;53.374;10.722;2022-10-23T12:06:56;101410.34;;;22.56
62180;BMP280;48172;53.374;10.722;2022-10-23T12:14:42;101396.47;;;22.54
62180;BMP280;48172;53.374;10.722;2022-10-23T12:22:15;101387.97;;;22.52
62180;BMP280;48172;53.374;10.722;2022-10-23T12:24:55;101387.66;;;22.50
62180;BMP280;48172;53.374;10.722;2022-10-23T12:27:51;101382.22;;;22.50
62180;BMP280;48172;53.374;10.722;2022-10-23T12:30:21;101374.50;;;22.48
62180;BMP280;48172;53.374;10.722;2022-10-23T12:38:19;101363.75;;;22.45
62180;BMP280;48172;53.374;10.722;2022-10-23T12:41:11;101359.53;;;22.44
62180;BMP280;48172;53.374;10.722;2022-10-23T12:43:39;101359.53;;;22.44
62180;BMP280;48172;53.374;10.722;2022-10-23T12:48:48;101340.16;;;22.42
62180;BMP280;48172;53.374;10.722;2022-10-23T12:51:22;101332.44;;;22.40
62180;BMP280;48172;53.374;10.722;2022-10-23T12:53:49;101338.34;;;22.39
62180;BMP280;48172;53.374;10.722;2022-10-23T12:56:16;101344.56;;;22.39
62180;BMP280;48172;53.374;10.722;2022-10-23T12:59:01;101337.56;;;22.38
62180;BMP280;48172;53.374;10.722;2022-10-23T13:01:31;101322.03;;;22.39
62180;BMP280;48172;53.374;10.722;2022-10-23T13:04:04;101321.69;;;22.37
62180;BMP280;48172;53.374;10.722;2022-10-23T13:06:33;101322.91;;;22.36
62180;BMP280;48172;53.374;10.722;2022-10-23T13:09:00;101316.25;;;22.37
62180;BMP280;48172;53.374;10.722;2022-10-23T13:11:28;101298.88;;;22.34
62180;BMP280;48172;53.374;10.722;2022-10-23T13:13:56;101301.59;;;22.34
62180;BMP280;48172;53.374;10.722;2022-10-23T13:16:24;101285.56;;;22.36
62180;BMP280;48172;53.374;10.722;2022-10-23T13:18:51;101277.84;;;22.34
62180;BMP280;48172;53.374;10.722;2022-10-23T13:21:22;101276.31;;;22.33
62180;BMP280;48172;53.374;10.722;2022-10-23T13:23:50;101266.22;;;22.34
62180;BMP280;48172;53.374;10.722;2022-10-23T13:26:31;101269.84;;;22.31
62180;BMP280;48172;53.374;10.722;2022-10-23T13:29:00;101269.69;;;22.34
62180;BMP280;48172;53.374;10.722;2022-10-23T13:31:35;101257.72;;;22.32
62180;BMP280;48172;53.374;10.722;2022-10-23T13:34:03;101260.47;;;22.32
62180;BMP280;48172;53.374;10.722;2022-10-23T13:36:34;101263.63;;;22.30
62180;BMP280;48172;53.374;10.722;2022-10-23T13:41:45;101255.91;;;22.29
62180;BMP280;48172;53.374;10.722;2022-10-23T13:44:15;101245.03;;;22.29
62180;BMP280;48172;53.374;10.722;2022-10-23T13:46:42;101247.00;;;22.28
62180;BMP280;48172;53.374;10.722;2022-10-23T13:49:09;101244.28;;;22.28
62180;BMP280;48172;53.374;10.722;2022-10-23T13:51:39;101236.09;;;22.28
62180;BMP280;48172;53.374;10.722;2022-10-23T13:54:14;101225.97;;;22.29
62180;BMP280;48172;53.374;10.722;2022-10-23T13:56:40;101226.44;;;22.27
62180;BMP280;48172;53.374;10.722;2022-10-23T13:59:09;101212.50;;;22.25
62180;BMP280;48172;53.374;10.722;2022-10-23T14:01:35;101208.13;;;22.28
62180;BMP280;48172;53.374;10.722;2022-10-23T14:04:04;101203.13;;;22.26
62180;BMP280;48172;53.374;10.722;2022-10-23T14:06:31;101212.50;;;22.25
62180;BMP280;48172;53.374;10.722;2022-10-23T14:09:00;101201.16;;;22.27
62180;BMP280;48172;53.374;10.722;2022-10-23T14:11:26;101194.69;;;22.24
62180;BMP280;48172;53.374;10.722;2022-10-23T14:13:53;101198.91;;;22.25
62180;BMP280;48172;53.374;10.722;2022-10-23T14:16:19;101209.78;;;22.25
62180;BMP280;48172;53.374;10.722;2022-10-23T14:18:46;101204.34;;;22.25
62180;BMP280;48172;53.374;10.722;2022-10-23T14:21:17;101200.13;;;22.24
62180;BMP280;48172;53.374;10.722;2022-10-23T14:23:46;101198.59;;;22.23
62180;BMP280;48172;53.374;10.722;2022-10-23T14:26:16;101194.69;;;22.24
62180;BMP280;48172;53.374;10.722;2022-10-23T14:28:43;101191.97;;;22.24
62180;BMP280;48172;53.374;10.722;2022-10-23T14:31:11;101189.69;;;22.23
62180;BMP280;48172;53.374;10.722;2022-10-23T14:33:38;101186.97;;;22.23
62180;BMP280;48172;53.374;10.722;2022-10-23T14:36:06;101186.19;;;22.22
62180;BMP280;48172;53.374;10.722;2022-10-23T14:38:32;101184.25;;;22.23
62180;BMP280;48172;53.374;10.722;2022-10-23T14:40:59;101181.50;;;22.23
62180;BMP280;48172;53.374;10.722;2022-10-23T14:43:26;101184.25;;;22.23
62180;BMP280;48172;53.374;10.722;2022-10-23T14:45:52;101177.28;;;22.22
62180;BMP280;48172;53.374;10.722;2022-10-23T14:48:19;101184.69;;;22.21
62180;BMP280;48172;53.374;10.722;2022-10-23T14:50:48;101183.03;;;22.24
62180;BMP280;48172;53.374;10.722;2022-10-23T14:53:14;101184.25;;;22.23
62180;BMP280;48172;53.374;10.722;2022-10-23T14:55:41;101180.47;;;22.20
62180;BMP280;48172;53.374;10.722;2022-10-23T14:58:07;101180.47;;;22.20
62180;BMP280;48172;53.374;10.722;2022-10-23T15:00:34;101162.19;;;22.21
62180;BMP280;48172;53.374;10.722;2022-10-23T15:03:00;101153.28;;;22.20
62180;BMP280;48172;53.374;10.722;2022-10-23T15:05:27;101147.81;;;22.20
62180;BMP280;48172;53.374;10.722;2022-10-23T15:07:54;101145.09;;;22.20
62180;BMP280;48172;53.374;10.722;2022-10-23T15:10:21;101136.59;;;22.18
62180;BMP280;48172;53.374;10.722;2022-10-23T15:12:47;101138.56;;;22.18
62180;BMP280;48172;53.374;10.722;2022-10-23T15:15:14;101137.81;;;22.17
62180;BMP280;48172;53.374;10.722;2022-10-23T15:17:41;101133.88;;;22.18
62180;BMP280;48172;53.374;10.722;2022-10-23T15:20:07;101140.53;;;22.17
62180;BMP280;48172;53.374;10.722;2022-10-23T15:22:34;101148.69;;;22.17
62180;BMP280;48172;53.374;10.722;2022-10-23T15:25:01;101139.81;;;22.17
62180;BMP280;48172;53.374;10.722;2022-10-23T15:27:27;101132.53;;;22.14
62180;BMP280;48172;53.374;10.722;2022-10-23T15:29:54;101130.56;;;22.14
62180;BMP280;48172;53.374;10.722;2022-10-23T15:32:20;101131.31;;;22.15
62180;BMP280;48172;53.374;10.722;2022-10-23T15:34:46;101122.88;;;22.13
62180;BMP280;48172;53.374;10.722;2022-10-23T15:37:15;101129.81;;;22.14
62180;BMP280;48172;53.374;10.722;2022-10-23T15:39:41;101136.75;;;22.15
62180;BMP280;48172;53.374;10.722;2022-10-23T15:42:09;101132.53;;;22.14
62180;BMP280;48172;53.374;10.722;2022-10-23T15:44:35;101119.41;;;22.12
62180;BMP280;48172;53.374;10.722;2022-10-23T15:47:04;101112.44;;;22.11
62180;BMP280;48172;53.374;10.722;2022-10-23T15:49:31;101105.78;;;22.12
62180;BMP280;48172;53.374;10.722;2022-10-23T15:51:57;101100.81;;;22.11
62180;BMP280;48172;53.374;10.722;2022-10-23T15:54:25;101098.50;;;22.09
62180;BMP280;48172;53.374;10.722;2022-10-23T15:56:57;101099.25;;;22.10
62180;BMP280;48172;53.374;10.722;2022-10-23T15:59:24;101091.84;;;22.10
62180;BMP280;48172;53.374;10.722;2022-10-23T16:01:51;101097.78;;;22.09